Grafton, Illinois
Current Conditions -  °F | °C
As of 8:54 PM on Sunday 23 Nov 2014 (Local Time) from KSET Reporting Station
Moderate Fog Moderate Fog  
Wind Chill: 50°   Ceiling: 300
Heat Index: 50°   Visibility: 0.5mi
Dew Point: 50°   Wind: 0mph
Humidity: 100%   Direction: NA
Pressure: 29.24"   Gusts: NA
Location:  38.97°N, 90.43°W
Report Text: KSET 240254Z AUTO 00000KT 1/2SM FG VV003 10/10 A2924 RMK AO2 SLP901 P0001 60005 T01000100 58010
Loading
Personal Weather Stations






























Interactive Weather Map New forecast layout! Learn more

10-Day Weather Forecast

Advertisements
Track Severe Weather on mobile